Date,TemperatureHighF,TemperatureAvgF,TemperatureLowF,DewpointHighF,DewpointAvgF,DewpointLowF,HumidityHigh,HumidityAvg,HumidityLow,PressureMaxIn,PressureMinIn,WindSpeedMaxMPH,WindSpeedAvgMPH,GustSpeedMaxMPH,PrecipitationSumIn
2013-1-1,38.8,32.2,21.4,28.5,20.8,5.0,80,64,45,29.88,29.71,7,2,10,0.00
2013-1-2,27.7,21.4,12.9,13.2,7.4,0.5,60,54,48,30.03,29.88,6,1,8,0.00
2013-1-3,27.9,17.9,8.6,11.1,2.3,-7.5,63,50,43,30.09,29.94,7,1,8,0.00
2013-1-4,36.7,25.4,14.2,24.0,14.4,5.4,75,63,54,29.94,29.80,13,2,15,0.00
2013-1-5,40.9,30.0,20.7,23.6,18.0,11.8,73,61,48,30.18,29.83,8,2,12,0.00
2013-1-6,41.5,31.7,24.1,31.6,24.1,15.0,82,74,66,30.12,29.85,9,1,10,0.00
2013-1-7,40.6,29.4,21.4,28.5,20.3,13.1,85,70,51,30.30,29.91,7,1,8,0.00
2013-1-8,45.3,30.4,20.1,30.7,21.8,12.7,81,71,54,30.33,30.21,15,2,17,0.26
2013-1-9,41.5,33.6,23.5,36.5,28.2,18.6,85,80,77,30.30,30.00,6,1,9,0.00
2013-1-10,45.5,37.2,27.1,32.1,23.2,18.3,82,58,43,30.44,30.03,8,2,12,0.08
2013-1-11,41.5,32.7,24.1,40.5,26.9,17.8,96,79,71,30.44,30.06,6,0,6,0.20
2013-1-12,47.7,43.3,40.5,47.1,42.7,39.9,98,98,96,30.09,30.00,3,0,4,0.08
2013-1-13,48.7,44.4,41.5,48.1,43.9,41.0,98,98,98,30.06,29.91,3,0,5,0.00
2013-1-14,56.7,47.7,36.3,55.4,43.9,26.2,98,87,55,30.18,29.85,7,1,8,0.00
2013-1-15,39.6,36.0,34.0,37.2,34.0,32.2,98,93,85,30.24,30.15,2,0,4,0.08
2013-1-16,35.4,33.8,32.2,34.7,32.8,31.0,98,96,88,30.15,29.71,3,1,6,0.00
2013-1-17,42.3,35.5,29.9,37.3,30.7,16.3,98,84,53,30.00,29.80,6,1,9,0.00
2013-1-18,30.9,23.8,15.4,18.7,7.1,2.4,60,49,40,30.39,29.94,8,2,12,0.00
2013-1-19,44.8,35.3,15.4,32.5,23.2,3.6,75,61,49,30.33,29.83,20,3,22,0.08
2013-1-20,52.3,40.8,28.6,32.9,26.2,8.9,77,57,38,29.88,29.56,18,3,21,0.00
2013-1-21,32.2,27.0,19.9,18.7,11.2,3.4,71,51,43,30.03,29.71,6,1,11,0.00
2013-1-22,26.2,20.3,12.4,18.1,4.9,-5.4,76,52,37,30.03,29.68,8,3,14,0.00
2013-1-23,19.8,12.0,7.2,-0.7,-6.9,-11.8,45,42,36,30.09,30.03,9,2,13,0.00
2013-1-24,21.4,11.5,2.3,-0.9,-11.0,-19.9,45,35,18,30.21,30.03,15,3,17,0.00
2013-1-25,25.0,17.7,10.2,5.9,-3.6,-13.9,54,38,32,30.27,29.94,7,2,10,0.00
2013-1-26,26.1,16.9,9.1,8.4,1.4,-3.9,62,50,43,30.21,29.91,7,1,10,0.00
2013-1-27,33.1,19.1,8.8,11.2,0.4,-7.4,58,44,31,30.39,30.21,8,1,10,0.00
2013-1-28,33.1,26.4,15.3,29.1,15.0,-1.7,85,63,45,30.39,29.91,5,0,6,0.00
2013-1-29,42.8,36.1,32.4,36.1,31.6,28.9,89,84,75,30.09,29.88,2,0,5,0.12
2013-1-30,56.7,52.3,35.8,55.8,51.0,31.7,98,95,85,30.03,29.38,16,3,18,0.00
2013-1-31,57.9,46.7,30.0,57.0,35.0,10.5,98,67,40,29.59,28.97,23,6,36,0.30
2013-2-1,32.9,27.3,18.3,13.0,7.9,0.5,48,43,35,30.09,29.59,16,3,16,0.00
2013-2-2,30.7,22.0,11.8,11.5,5.7,-2.0,59,49,43,30.21,30.00,10,2,14,0.00
2013-2-3,33.8,24.3,17.1,17.7,11.2,5.8,70,57,47,30.00,29.68,6,1,6,0.00
2013-2-4,32.5,24.0,16.5,12.2,8.1,3.6,67,51,40,29.85,29.68,9,2,13,0.00
2013-2-5,28.0,25.3,21.6,18.1,12.6,3.5,71,59,45,29.91,29.83,3,0,3,0.00
2013-2-6,39.2,30.8,25.2,25.6,18.0,5.2,79,60,41,30.24,29.83,8,2,9,0.00
2013-2-7,33.6,26.2,19.0,12.9,7.1,1.6,50,44,41,30.42,30.21,3,1,6,0.00
2013-2-8,32.5,29.8,24.4,31.6,23.5,8.9,97,79,47,30.30,29.41,8,2,12,0.00
2013-2-9,26.2,22.3,16.0,24.7,20.1,12.0,98,91,84,30.15,29.47,12,4,16,0.00
2013-2-10,32.5,17.9,3.6,29.4,13.9,-0.7,91,84,76,30.33,30.15,7,2,7,0.00
2013-2-11,40.1,31.3,15.9,39.6,29.6,10.4,98,93,82,30.27,29.56,5,1,9,0.04
2013-2-12,43.0,36.9,29.5,41.7,34.4,24.4,98,91,77,29.83,29.56,10,2,14,0.00
2013-2-13,42.3,32.4,22.5,31.0,25.1,18.6,86,75,59,29.83,29.59,7,1,12,0.00
2013-2-14,43.5,32.4,25.0,29.9,24.1,18.7,83,72,55,29.91,29.62,6,1,8,0.00
2013-2-15,47.7,37.0,28.4,38.4,30.0,20.7,86,76,64,29.94,29.83,9,1,11,0.00
2013-2-16,38.7,34.9,30.0,30.4,26.6,19.7,84,72,57,29.85,29.59,6,2,9,0.00
2013-2-17,30.0,24.0,16.0,20.4,9.0,-1.7,70,53,43,29.71,29.41,23,5,26,0.00
2013-2-18,32.5,21.6,14.4,12.2,3.8,-2.1,51,46,41,30.09,29.71,14,4,17,0.00
2013-2-19,47.8,32.7,17.6,37.1,22.4,3.9,86,66,51,30.12,29.53,6,1,9,0.04
2013-2-20,37.4,31.5,23.0,33.2,19.1,6.7,87,61,47,29.80,29.53,12,4,14,0.00
2013-2-21,32.7,25.5,21.4,16.1,9.8,6.3,54,51,47,30.15,29.77,14,4,20,0.00
2013-2-22,43.3,30.8,20.7,25.4,16.9,7.6,67,56,49,30.30,30.15,5,1,9,0.00
2013-2-23,39.4,35.4,32.5,32.8,28.7,22.8,88,77,67,30.18,29.79,7,1,7,0.31
2013-2-24,40.3,36.2,32.2,39.0,34.3,30.6,95,93,88,29.80,29.59,5,1,6,0.28
2013-2-25,44.4,35.3,26.4,37.8,30.7,24.9,94,84,70,30.15,29.80,5,1,5,0.00
2013-2-26,36.0,33.3,33.1,30.0,27.7,27.1,84,80,70,30.21,29.94,5,1,7,0.04
2013-2-27,42.6,39.0,34.3,42.1,38.2,30.0,98,97,85,29.94,29.47,9,2,12,1.84
2013-2-28,46.6,38.6,34.2,46.0,38.0,33.7,98,98,97,29.56,29.44,3,0,5,0.04
2013-3-1,46.8,38.2,31.1,39.7,33.6,29.3,98,84,66,29.62,29.44,6,1,7,0.00
2013-3-2,41.0,36.5,33.6,34.3,27.5,24.3,77,70,59,29.65,29.59,5,1,7,0.00
2013-3-3,39.9,33.2,29.1,25.2,22.5,19.7,72,65,53,29.62,29.56,0,0,0,0.00
2013-3-4,40.6,32.1,27.3,24.8,19.2,16.3,66,59,51,29.77,29.62,0,0,0,0.00
2013-3-5,48.7,36.7,27.5,30.9,23.3,16.1,70,58,49,29.94,29.77,0,0,0,0.00
2013-3-6,43.7,37.5,31.3,35.4,29.9,23.8,81,74,63,29.94,29.83,0,0,0,0.04
2013-3-7,40.6,35.2,32.5,30.4,28.4,26.5,90,77,61,29.91,29.80,0,0,0,0.04
2013-3-8,34.8,33.2,32.1,33.2,31.1,29.1,95,92,84,30.03,29.83,0,0,0,0.00
2013-3-9,53.1,38.0,29.3,36.5,29.2,23.8,89,72,44,30.27,30.03,0,0,0,2.05
2013-3-10,45.9,34.3,23.0,35.9,28.2,19.7,90,79,66,30.30,30.24,0,0,0,1.24
2013-3-11,51.6,41.1,34.3,42.9,35.5,29.1,88,81,71,30.27,30.06,0,0,0,0.43
2013-3-12,52.0,46.1,37.8,51.4,44.7,34.5,98,95,88,30.06,29.65,0,0,0,0.00
2013-3-13,50.5,40.5,32.9,44.1,33.3,24.9,98,77,51,29.77,29.68,0,0,0,0.00
2013-3-14,36.1,31.9,28.4,26.9,19.7,12.2,81,62,47,29.80,29.71,0,0,0,0.00
2013-3-15,42.3,33.3,25.2,23.5,17.0,9.1,62,51,45,29.83,29.59,0,0,0,0.00
2013-3-16,43.3,34.6,27.5,22.8,19.7,15.0,65,55,41,29.80,29.65,0,0,0,0.00
2013-3-17,40.1,31.3,23.9,23.0,15.4,7.4,70,52,40,30.21,29.80,6,0,10,0.00
2013-3-18,39.7,29.4,19.4,21.6,11.6,2.6,70,48,40,30.36,30.03,5,1,6,0.00
2013-3-19,39.7,34.1,30.2,38.4,30.9,21.2,97,88,70,30.03,29.53,6,2,9,1.53
2013-3-20,42.4,33.5,26.1,32.8,26.4,17.4,97,77,52,29.74,29.62,14,2,17,0.00
2013-3-21,39.2,32.6,27.3,25.1,22.7,19.3,75,67,55,29.74,29.53,6,1,7,0.00
2013-3-22,42.6,32.4,23.0,24.0,17.4,10.2,74,54,46,29.71,29.56,10,2,15,0.00
2013-3-23,46.2,35.9,26.2,26.6,19.5,14.2,69,52,40,29.80,29.62,12,3,17,0.00
2013-3-24,48.2,37.6,25.7,27.3,20.1,12.3,60,49,42,29.80,29.62,8,2,10,0.00
2013-3-25,46.8,38.6,30.9,29.8,24.0,18.9,69,56,46,29.68,29.35,7,2,10,0.00
2013-3-26,50.9,39.2,27.9,31.0,25.1,13.3,75,58,43,29.74,29.44,7,1,7,0.00
2013-3-27,55.2,39.2,23.9,32.5,22.0,12.5,70,51,37,29.80,29.71,8,2,10,0.00
2013-3-28,45.5,43.3,36.7,27.8,26.9,19.8,56,52,49,29.97,29.80,3,0,5,0.00
2013-3-29,58.3,45.3,33.6,36.7,28.7,23.1,69,53,40,30.00,29.91,8,2,10,0.00
2013-3-30,58.5,45.7,33.3,32.0,25.4,15.2,63,45,34,30.03,29.94,10,2,11,0.00
2013-3-31,58.1,42.6,27.3,40.2,26.2,14.0,82,53,40,30.03,29.56,10,1,16,0.17
2013-4-1,60.6,46.7,34.2,48.3,38.9,18.5,91,75,52,29.74,29.47,12,3,18,0.04
2013-4-2,44.2,34.7,25.2,22.4,16.9,10.1,64,49,39,29.91,29.74,13,3,23,0.00
2013-4-3,46.5,36.1,27.9,22.3,14.1,8.5,45,40,34,30.12,29.91,12,4,15,0.00
2013-4-4,51.3,38.8,25.3,25.8,18.1,7.7,57,43,37,30.27,30.00,9,2,13,0.00
2013-4-5,61.7,46.2,37.6,34.5,27.4,16.8,66,49,32,30.00,29.56,8,2,11,0.00
2013-4-6,50.2,39.9,30.2,17.8,14.6,4.8,46,36,16,30.21,29.80,9,3,12,0.00
2013-4-7,55.4,41.4,26.4,37.9,25.2,9.7,72,53,43,30.24,29.94,10,2,16,0.00
2013-4-8,68.0,52.2,39.4,45.1,39.1,32.8,83,63,41,29.97,29.88,6,1,9,0.00
2013-4-9,77.3,65.3,48.9,55.0,44.8,35.5,83,50,36,29.94,29.80,13,2,15,0.00
2013-4-10,69.1,55.3,47.1,54.6,45.9,37.2,91,72,53,29.91,29.77,9,1,10,0.24
2013-4-11,63.0,52.2,45.7,54.3,46.4,33.8,96,81,63,30.00,29.74,5,1,7,0.00
2013-4-12,45.7,41.8,38.5,38.5,33.4,27.3,96,74,52,30.00,29.65,9,2,12,0.48
2013-4-13,56.3,45.9,37.0,45.9,39.3,32.8,97,80,56,29.85,29.65,7,2,10,0.04
2013-4-14,57.4,47.4,36.1,41.3,33.9,20.2,84,61,43,30.15,29.85,8,2,12,0.00
2013-4-15,57.4,45.4,34.2,36.8,28.7,20.6,65,52,44,30.33,30.12,8,1,13,0.00
2013-4-16,62.8,49.9,34.9,47.8,39.7,25.4,82,68,56,30.33,30.06,7,2,17,0.00
2013-4-17,68.7,58.3,45.7,50.8,41.3,30.0,85,55,35,30.24,30.03,7,2,9,0.00
2013-4-18,63.9,50.4,36.5,43.0,34.5,27.4,75,56,38,30.30,30.06,8,2,10,0.00
2013-4-19,72.5,59.8,52.2,62.6,54.8,43.0,95,84,70,30.06,29.62,21,2,24,0.04
2013-4-20,60.6,53.2,44.4,59.3,47.1,33.3,98,81,55,30.15,29.56,21,3,24,0.41
2013-4-21,54.2,42.2,32.5,41.2,31.7,22.2,87,67,49,30.56,30.15,7,2,8,0.00
2013-4-22,57.0,43.8,30.2,46.6,36.9,28.2,95,78,54,30.59,30.44,8,2,9,0.00
2013-4-23,48.2,42.9,37.8,44.3,39.7,33.4,94,88,81,30.44,29.97,8,2,9,0.00
2013-4-24,66.7,52.4,42.8,57.3,47.9,41.2,95,85,66,29.94,29.80,10,3,16,0.00
2013-4-25,63.5,53.6,39.9,50.9,43.3,25.6,97,71,47,30.18,29.80,8,2,10,0.00
2013-4-26,65.8,50.2,32.9,42.7,33.2,23.4,73,53,41,30.30,30.18,9,1,10,0.00
2013-4-27,63.9,49.8,35.4,43.1,34.9,26.9,80,58,44,30.33,30.21,8,1,12,0.00
2013-4-28,65.7,51.0,35.1,43.8,34.1,27.6,81,55,38,30.27,30.15,8,1,12,0.00
2013-4-29,64.8,54.6,45.9,46.1,37.4,30.1,73,53,40,30.18,30.15,7,1,10,0.00
2013-4-30,66.2,55.1,43.0,42.0,34.1,23.4,65,46,34,30.27,30.15,9,2,12,0.00
2013-5-1,67.8,51.9,33.8,45.7,33.6,19.2,63,50,43,30.39,30.27,8,1,10,0.00
2013-5-2,71.4,62.5,38.7,48.2,42.3,31.3,82,49,39,30.39,30.24,10,2,10,0.00
2013-5-3,68.2,55.2,44.2,43.6,36.0,27.6,65,49,40,30.39,30.27,7,2,9,0.00
2013-5-4,68.4,52.3,40.1,45.9,37.3,28.6,77,58,42,30.27,30.15,9,1,10,0.00
2013-5-5,63.3,49.3,35.6,44.2,35.9,27.1,80,61,48,30.21,30.15,7,1,10,0.00
2013-5-6,68.7,55.2,40.1,49.9,41.9,32.3,78,62,49,30.18,30.06,6,1,9,0.00
2013-5-7,74.8,58.5,41.5,59.1,47.9,34.4,85,69,54,30.09,30.03,8,1,10,0.00
2013-5-8,69.6,60.9,55.1,64.1,56.8,50.5,98,87,77,30.06,29.94,5,1,6,0.37
2013-5-9,65.5,59.5,52.5,64.9,58.9,52.0,98,98,98,29.91,29.80,3,0,6,0.87
2013-5-10,77.4,63.3,49.3,69.9,57.5,48.7,98,83,53,29.88,29.83,8,1,10,0.00
2013-5-11,64.9,59.9,56.1,62.9,58.0,51.5,98,93,81,29.85,29.59,6,1,9,0.41
2013-5-12,69.1,61.2,50.2,64.1,54.3,31.8,98,81,45,29.74,29.50,12,1,15,0.04
2013-5-13,60.9,50.8,40.5,37.8,32.0,25.4,72,50,36,29.94,29.74,10,2,14,0.00
2013-5-14,60.6,48.9,36.5,38.2,30.5,25.0,68,50,37,29.97,29.91,6,1,7,0.00
2013-5-15,61.2,49.5,35.4,52.5,39.5,25.4,84,69,45,29.97,29.59,7,1,10,0.00
2013-5-16,77.8,62.2,44.6,56.3,46.7,39.8,91,61,35,29.71,29.59,9,1,10,0.00
2013-5-17,71.0,59.9,47.1,46.6,42.3,38.2,76,54,37,30.12,29.71,6,1,10,0.00
2013-5-18,71.4,57.6,44.8,52.8,44.1,37.0,80,62,44,30.21,30.12,9,1,10,0.00
2013-5-19,61.5,55.0,48.2,55.6,50.0,40.5,98,84,72,30.27,30.12,3,0,5,0.31
2013-5-20,76.6,65.1,55.9,70.2,61.8,55.0,98,90,74,30.12,29.85,6,1,8,0.04
2013-5-21,84.4,71.0,59.5,73.1,64.3,56.9,95,81,62,29.88,29.74,7,1,10,0.00
2013-5-22,75.4,63.9,55.2,67.9,58.9,50.6,91,84,74,29.88,29.77,3,1,5,0.00
2013-5-23,72.5,66.2,63.1,69.4,63.7,60.7,98,92,85,29.83,29.71,7,2,12,0.29
2013-5-24,70.2,61.0,47.5,69.0,59.6,46.9,98,95,84,29.74,29.56,7,1,7,0.57
2013-5-25,49.8,46.5,42.8,49.0,45.9,42.0,98,98,95,29.74,29.68,6,2,7,0.24
2013-5-26,59.5,50.9,42.6,47.5,42.7,36.8,98,76,52,30.03,29.74,9,2,10,0.00
2013-5-27,70.7,55.1,37.9,51.4,41.0,34.1,91,63,38,30.09,29.97,6,1,8,0.13
2013-5-28,72.5,57.7,43.5,56.2,47.1,36.8,93,70,45,30.12,30.06,6,0,7,0.00
2013-5-29,74.1,64.3,57.4,67.6,60.7,54.3,94,88,79,30.09,29.91,7,1,7,0.16
2013-5-30,85.6,73.5,60.1,75.8,66.8,58.0,96,81,61,30.03,29.94,5,0,6,0.00
2013-5-31,89.8,74.8,62.6,77.7,64.7,58.4,92,73,47,30.00,29.88,3,0,10,0.00
2013-6-1,87.1,73.3,61.2,73.7,64.4,56.6,90,75,55,29.91,29.80,7,1,8,0.00
2013-6-2,82.9,71.6,64.2,71.8,63.9,59.8,90,77,62,29.83,29.68,8,1,9,0.00
2013-6-3,74.1,67.3,63.1,72.0,64.9,58.6,96,92,82,29.77,29.68,3,0,5,0.75
2013-6-4,71.1,62.0,52.5,58.0,47.5,42.8,85,60,43,30.00,29.77,6,1,7,0.00
2013-6-5,73.6,60.7,48.4,56.5,46.9,42.5,84,63,43,30.09,30.00,7,0,7,0.00
2013-6-6,71.6,60.4,50.5,60.9,51.8,43.6,90,74,51,30.09,29.97,3,0,5,0.04
2013-6-7,60.4,58.2,55.9,59.9,57.2,54.2,98,97,90,29.97,29.62,5,1,7,3.70
2013-6-8,72.9,63.0,55.0,69.7,61.5,54.5,98,95,89,29.91,29.47,6,1,7,0.70
2013-6-9,75.3,65.6,54.9,67.9,61.2,54.3,98,87,67,30.09,29.91,6,0,7,0.00
2013-6-10,70.9,62.4,56.3,67.3,59.8,54.5,98,92,71,30.09,29.83,3,0,6,0.89
2013-6-11,74.1,65.2,59.0,72.3,64.4,58.4,98,97,88,29.83,29.47,5,1,7,0.96
2013-6-12,70.7,63.8,56.8,62.8,58.1,51.7,98,83,58,29.74,29.53,13,1,13,0.00
2013-6-13,58.8,55.8,51.1,58.1,54.2,48.4,98,95,83,29.74,29.44,7,1,9,0.73
2013-6-14,65.8,58.0,52.2,64.0,56.9,51.6,98,96,90,29.71,29.44,3,1,6,0.94
2013-6-15,74.3,64.8,56.5,66.5,57.6,52.3,98,80,49,29.85,29.71,5,0,6,0.00
2013-6-16,75.2,63.8,51.3,65.0,58.4,48.1,93,83,55,29.88,29.65,6,0,7,0.00
2013-6-17,82.9,69.0,58.1,71.9,62.8,56.1,96,82,60,29.85,29.71,6,1,8,0.08
2013-6-18,80.1,66.2,57.7,71.8,62.6,55.6,97,89,72,29.85,29.74,5,0,5,0.24
2013-6-19,73.2,64.0,55.6,65.4,58.3,50.3,98,83,59,30.06,29.80,3,0,7,0.00
2013-6-20,76.8,63.3,48.6,63.1,53.3,44.6,92,72,48,30.18,30.06,6,1,7,0.00
2013-6-21,79.2,66.5,54.5,65.8,56.6,50.1,89,72,53,30.21,30.12,6,1,8,0.00
2013-6-22,79.0,67.2,56.3,63.3,57.2,51.5,87,71,55,30.18,30.03,5,1,6,0.00
2013-6-23,85.1,72.1,59.7,73.3,64.3,55.7,89,77,58,30.09,29.91,7,1,9,0.00
2013-6-24,88.7,78.0,70.7,80.4,71.2,63.9,91,80,69,29.97,29.80,3,1,7,0.00
2013-6-25,87.1,75.4,66.2,78.0,68.8,61.9,90,80,67,29.88,29.65,5,0,7,0.00
2013-6-26,79.2,71.2,69.1,71.7,68.2,65.9,97,91,78,29.74,29.68,5,0,8,0.00
2013-6-27,77.5,70.8,66.6,76.3,69.6,66.0,98,96,92,29.74,29.56,5,0,6,0.46
2013-6-28,78.1,72.7,69.3,76.8,71.5,67.8,98,96,94,29.59,29.38,7,1,9,0.04
2013-6-29,79.7,74.0,70.5,74.4,70.8,68.7,96,90,80,29.59,29.38,7,1,9,0.00
2013-6-30,79.5,73.2,70.9,75.4,70.4,68.5,97,91,86,29.83,29.59,2,0,6,0.12
2013-7-1,76.0,72.6,70.9,75.1,71.8,70.0,98,97,97,29.97,29.80,5,0,6,0.12
2013-7-2,79.3,74.1,71.4,77.3,72.8,70.3,98,96,91,30.06,29.94,5,1,8,0.04
2013-7-3,84.2,75.5,69.1,78.7,72.8,68.2,97,92,83,30.12,30.03,6,1,10,0.00
2013-7-4,86.4,78.6,72.1,80.4,74.2,69.9,94,87,76,30.12,30.00,7,1,8,0.00
2013-7-5,88.7,79.1,71.1,81.8,73.7,68.6,93,84,72,30.06,29.94,6,1,8,0.00
2013-7-6,90.1,78.7,71.1,81.7,73.2,68.2,92,84,68,29.97,29.85,6,0,7,0.00
2013-7-7,90.1,79.8,71.4,83.2,73.6,68.3,91,82,66,29.88,29.77,5,0,6,0.00
2013-7-8,86.9,77.4,70.2,77.8,71.4,66.8,90,82,68,29.88,29.80,5,1,8,0.00
2013-7-9,84.4,75.0,68.9,76.7,70.9,65.4,91,87,75,29.94,29.85,3,0,6,0.04
2013-7-10,84.6,77.0,72.5,78.5,73.3,70.0,93,89,82,29.91,29.65,3,0,6,0.00
2013-7-11,79.2,74.5,68.9,77.9,72.6,67.1,97,94,89,29.80,29.65,2,0,4,0.71
2013-7-12,80.8,72.4,67.1,74.8,68.3,62.3,95,87,79,30.00,29.77,3,1,6,0.00
2013-7-13,80.2,73.0,67.5,76.2,69.5,62.5,92,89,81,30.15,30.00,3,0,5,0.00
2013-7-14,86.0,78.4,72.5,80.5,74.7,70.4,94,89,81,30.18,30.09,3,0,6,0.00
2013-7-15,87.3,77.9,70.7,81.8,74.7,69.5,96,90,78,30.09,29.97,5,0,6,0.12
2013-7-16,88.0,79.0,69.6,79.7,73.1,67.4,93,83,68,30.06,29.97,2,0,5,0.00
2013-7-17,87.8,77.7,69.3,80.5,71.9,65.9,91,83,73,30.12,29.83,5,0,5,0.00
2013-7-18,91.2,79.7,70.7,80.7,73.5,67.5,91,82,67,29.94,29.83,3,0,5,0.00
2013-7-19,92.7,81.4,72.7,82.6,75.1,69.8,92,82,69,29.85,29.65,5,1,9,0.00
2013-7-20,89.6,79.5,70.0,78.8,74.1,68.8,96,84,67,29.71,29.56,7,1,23,0.21
2013-7-21,81.1,72.5,66.2,75.5,69.3,64.3,98,90,78,29.85,29.71,2,0,4,0.04
2013-7-22,80.0,73.4,67.5,75.5,69.6,64.1,91,88,83,29.88,29.74,2,0,3,0.00
2013-7-23,83.1,74.6,70.2,78.8,72.6,69.3,97,94,82,29.74,29.44,6,1,7,0.49
2013-7-24,80.6,73.4,68.4,77.5,70.8,63.0,98,92,83,29.80,29.47,3,0,6,0.04
2013-7-25,68.2,61.6,59.0,62.8,58.4,54.9,98,90,78,29.97,29.80,3,0,4,0.87
2013-7-26,70.0,64.3,59.2,69.4,63.7,58.6,98,98,98,29.91,29.83,3,1,5,0.35
2013-7-27,79.0,69.9,62.2,74.3,67.4,61.7,98,92,80,29.94,29.85,3,0,6,0.00
2013-7-28,81.5,71.8,66.2,75.1,68.0,63.9,93,88,79,29.88,29.83,3,0,5,0.00
2013-7-29,83.1,73.7,66.7,76.0,69.3,62.4,92,86,77,29.91,29.83,6,0,7,0.00
2013-7-30,78.4,68.5,60.1,67.4,61.6,56.5,89,79,66,30.00,29.91,5,0,5,0.00
2013-7-31,78.8,67.6,57.6,68.7,60.9,53.4,90,80,67,30.03,29.91,3,0,6,0.00
2013-8-1,76.6,67.3,62.2,70.2,62.9,58.2,92,86,79,29.94,29.77,2,0,4,0.04
2013-8-2,78.8,70.6,65.3,72.5,66.7,62.2,97,88,75,29.77,29.68,6,1,6,0.08
2013-8-3,73.8,67.9,63.5,69.3,64.4,59.9,92,89,83,29.80,29.68,5,0,6,0.04
2013-8-4,76.6,66.3,57.7,66.7,59.8,53.4,92,80,66,29.80,29.68,5,0,10,0.00
2013-8-5,60.6,59.3,55.2,55.8,54.3,50.1,87,83,79,29.91,29.80,5,1,5,0.00
2013-8-6,75.4,65.6,53.4,61.7,57.5,48.4,85,76,60,30.03,29.91,5,1,6,0.00
2013-8-7,75.4,66.1,56.1,64.9,58.7,51.2,89,78,66,30.09,30.00,5,0,7,0.00
2013-8-8,79.2,72.0,67.3,73.9,68.0,61.6,91,87,82,29.97,29.88,7,1,10,0.00
2013-8-9,74.7,72.4,70.5,73.6,70.9,68.4,98,95,89,29.91,29.68,8,1,9,0.66
2013-8-10,77.0,70.0,63.5,74.5,68.4,60.2,98,95,87,29.91,29.71,3,0,7,0.00
2013-8-11,75.4,64.8,54.1,63.1,57.6,51.0,92,79,60,30.00,29.91,5,0,6,0.00
2013-8-12,78.8,68.7,60.6,68.1,62.9,56.1,92,82,66,29.91,29.80,3,0,5,0.00
2013-8-13,71.1,67.6,63.3,70.2,65.5,59.4,97,93,87,29.85,29.56,2,0,3,0.08
2013-8-14,71.8,64.5,58.6,63.8,57.3,51.8,96,79,56,29.91,29.62,6,1,7,0.00
2013-8-15,74.7,62.7,52.9,59.0,53.9,48.5,89,74,53,30.03,29.91,6,0,6,0.00
2013-8-16,74.2,63.4,54.1,64.0,56.4,50.0,91,78,59,30.12,30.03,3,0,5,0.00
2013-8-17,75.9,64.5,54.7,65.9,58.3,50.9,92,81,64,30.18,30.09,2,0,5,0.00
2013-8-18,74.4,65.7,59.4,66.7,61.2,56.6,92,86,75,30.15,30.00,2,0,2,0.00
2013-8-19,77.8,66.4,57.2,69.6,62.1,54.9,93,86,71,30.03,29.88,2,0,4,0.00
2013-8-20,81.3,69.6,60.1,69.5,63.5,57.7,94,82,59,30.03,29.91,3,0,7,0.00
2013-8-21,83.5,70.4,60.8,70.3,63.4,57.8,92,80,61,30.06,29.94,5,0,6,0.00
2013-8-22,75.4,69.9,64.8,72.3,67.6,60.6,97,93,84,29.97,29.77,8,0,10,0.34
2013-8-23,77.0,69.8,61.9,69.2,65.5,58.0,96,87,73,30.00,29.74,3,0,5,0.00
2013-8-24,74.5,63.6,54.5,61.7,56.0,51.3,90,77,57,30.24,30.00,3,0,5,0.00
2013-8-25,77.4,64.4,53.1,64.6,55.9,49.3,92,75,50,30.27,30.12,6,0,7,0.00
2013-8-26,77.7,68.1,61.2,68.1,62.9,55.3,98,84,69,30.15,29.83,3,0,6,0.87
2013-8-27,76.6,70.6,67.1,75.7,70.0,66.5,98,98,97,29.83,29.71,3,0,7,0.67
2013-8-28,82.4,72.3,67.3,77.8,70.1,65.9,98,93,82,29.83,29.74,3,0,5,0.00
2013-8-29,73.8,68.7,63.0,70.0,65.9,60.0,95,91,83,29.94,29.83,3,0,5,0.00
2013-8-30,76.3,67.7,60.8,71.9,64.8,58.5,94,91,83,29.94,29.71,3,0,8,0.00
2013-8-31,79.0,72.8,68.4,74.5,70.1,66.3,94,91,86,29.77,29.68,5,1,6,0.00
2013-9-1,79.0,73.8,70.3,74.9,71.2,67.9,94,92,87,29.77,29.71,0,0,1,0.04
2013-9-2,75.0,72.4,69.6,74.4,71.5,69.0,98,97,93,29.74,29.56,0,0,0,0.46
2013-9-3,75.1,69.9,61.9,74.5,69.3,61.3,98,98,98,29.74,29.59,0,0,0,0.04
2013-9-4,74.3,64.5,56.7,66.9,61.2,56.1,98,90,70,29.85,29.74,6,0,7,0.00
2013-9-5,72.3,62.8,52.5,65.9,57.5,47.1,95,84,67,30.03,29.80,3,0,6,0.00
2013-9-6,67.6,56.3,48.2,54.1,48.1,43.6,86,75,55,30.15,30.03,5,0,6,0.00
2013-9-7,71.8,58.9,46.4,58.7,51.5,41.7,90,77,60,30.03,29.80,5,0,7,0.00
2013-9-8,75.6,64.6,54.3,65.1,56.3,43.0,91,76,53,29.97,29.68,6,0,8,0.00
2013-9-9,67.5,55.9,45.0,51.4,45.8,38.8,83,70,51,30.15,29.97,5,0,8,0.00
2013-9-10,75.0,66.2,54.1,71.2,62.5,48.1,91,88,80,30.09,29.91,7,1,7,0.00
2013-9-11,86.4,74.4,66.2,79.1,70.1,63.8,94,87,73,30.00,29.83,5,1,6,0.00
2013-9-12,81.7,73.2,68.0,75.3,69.5,65.3,97,88,78,29.88,29.56,6,1,9,0.49
2013-9-13,73.8,67.8,60.1,71.9,66.3,56.8,98,95,89,29.65,29.47,3,0,5,0.04
2013-9-14,66.2,58.6,50.4,58.0,53.5,45.7,93,84,69,29.97,29.65,5,0,7,0.00
2013-9-15,66.9,55.2,45.5,56.6,49.4,42.3,92,81,68,30.09,29.97,3,0,5,0.00
2013-9-16,64.6,57.4,51.3,62.5,54.6,45.6,98,90,81,30.12,29.94,5,0,6,0.04
2013-9-17,61.0,50.5,41.2,49.6,42.7,36.3,84,75,64,30.33,30.12,3,1,5,0.00
2013-9-18,67.3,51.2,39.2,56.0,43.9,34.0,87,77,65,30.27,30.09,5,0,6,0.00
2013-9-19,71.6,56.5,45.0,61.4,49.7,40.3,88,78,67,30.09,29.97,5,0,5,0.00
2013-9-20,73.0,58.9,47.5,63.8,52.6,43.2,89,80,67,30.00,29.91,5,0,7,0.00
2013-9-21,73.0,62.7,51.6,66.6,58.0,47.6,91,85,78,29.91,29.62,6,1,9,0.00
2013-9-22,65.7,60.1,50.9,64.8,58.3,47.5,98,94,87,29.77,29.56,5,1,9,0.00
2013-9-23,61.3,51.8,43.2,52.4,46.3,40.4,92,82,69,29.91,29.74,3,0,6,0.00
2013-9-24,64.8,51.5,39.7,53.4,44.6,35.3,87,78,64,29.91,29.74,6,0,8,0.00
2013-9-25,67.3,54.9,43.7,56.8,48.5,39.2,88,79,68,29.85,29.80,3,0,5,0.00
2013-9-26,64.4,57.7,49.1,56.9,51.5,43.8,86,80,70,30.00,29.85,2,0,3,0.00
2013-9-27,64.0,56.1,48.6,57.9,51.3,43.3,88,84,79,30.15,30.00,2,0,3,0.00
2013-9-28,70.5,56.7,46.0,62.2,51.7,42.7,92,84,72,30.24,30.15,2,0,6,0.00
2013-9-29,66.4,55.4,46.6,57.0,49.5,42.9,92,81,65,30.15,30.00,2,0,3,0.00
2013-9-30,68.5,55.3,46.6,58.8,49.4,42.6,90,81,69,30.00,29.85,2,0,4,0.00
2013-10-1,72.5,58.7,47.8,63.3,53.3,43.9,91,82,71,29.88,29.77,3,0,4,0.00
2013-10-2,76.5,63.0,52.3,66.7,57.3,48.9,92,82,68,29.91,29.77,3,0,7,0.00
2013-10-3,72.1,60.1,49.3,60.3,53.5,45.3,90,79,65,30.00,29.91,3,0,4,0.00
2013-10-4,75.1,62.8,54.5,69.5,58.0,49.9,89,85,80,29.97,29.88,3,0,5,0.00
2013-10-5,73.0,64.1,60.1,66.5,59.8,56.2,90,86,77,29.97,29.91,3,0,6,0.00
2013-10-6,61.5,60.7,59.4,61.0,59.4,57.6,98,96,89,30.06,29.97,3,0,3,0.37
2013-10-7,73.6,66.8,60.1,72.2,65.8,59.5,98,97,93,29.97,29.71,8,1,21,0.08
2013-10-8,64.2,56.3,49.1,60.7,51.2,43.5,96,83,70,30.24,29.83,6,1,7,0.00
2013-10-9,63.7,53.1,45.5,53.7,46.4,40.9,86,78,67,30.33,30.24,6,0,7,0.00
2013-10-10,64.8,56.6,48.9,58.3,51.2,43.7,85,82,79,30.24,30.03,3,0,7,0.00
2013-10-11,69.4,61.0,54.9,62.7,55.5,46.4,89,82,73,30.03,29.94,3,1,6,0.00
2013-10-12,71.4,59.0,51.4,59.5,50.8,44.0,82,74,65,30.24,30.00,5,1,7,0.00
2013-10-13,61.3,55.3,48.7,52.7,48.7,42.5,85,79,72,30.30,30.21,5,0,5,0.00
2013-10-14,63.3,50.0,39.7,53.0,43.2,35.0,87,78,66,30.30,30.15,5,0,5,0.00
2013-10-15,68.7,53.3,43.5,57.0,45.4,38.7,86,75,59,30.18,30.06,5,0,6,0.00
2013-10-16,67.3,56.9,46.4,58.4,50.1,39.6,83,78,72,30.06,29.83,2,0,4,0.00
2013-10-17,58.5,57.2,56.1,54.6,52.7,51.0,87,85,83,29.83,29.80,0,0,1,0.00
2013-10-19,59.9,56.4,54.0,48.1,46.9,45.8,75,70,65,29.74,29.65,1,0,1,0.00
2013-10-20,62.4,53.6,41.7,49.7,41.8,30.8,81,65,47,29.97,29.62,6,1,11,0.00
2013-10-21,64.6,48.8,37.0,47.8,37.0,29.5,78,65,48,30.06,29.91,6,1,9,0.00
2013-10-22,68.5,52.9,42.8,53.3,42.6,34.9,84,69,55,29.91,29.62,8,1,13,0.00
2013-10-23,48.9,43.8,36.1,42.0,36.3,29.0,80,75,68,29.74,29.53,1,0,2,0.00
2013-10-24,53.1,42.5,34.3,36.8,31.4,24.8,83,66,49,29.85,29.59,8,1,11,0.00
2013-10-25,51.3,39.8,30.4,33.7,26.4,20.0,74,59,48,30.09,29.85,7,1,11,0.00
2013-10-26,54.0,41.8,28.8,35.4,28.2,19.6,76,59,47,30.09,29.80,17,3,21,0.00
2013-10-27,58.6,48.1,35.6,39.1,31.6,20.3,65,53,45,30.00,29.74,7,1,13,0.00
2013-10-28,60.4,45.0,29.8,40.1,29.3,19.2,70,55,45,30.24,30.00,8,1,11,0.00
2013-10-29,53.4,43.0,35.1,33.3,26.1,19.2,57,51,46,30.33,30.24,9,0,10,0.00
2013-10-30,57.7,45.6,34.7,44.6,33.3,19.5,71,62,53,30.27,30.12,7,0,12,0.00
2013-10-31,63.0,51.5,40.3,58.2,46.0,32.6,94,82,71,30.15,29.74,6,1,9,0.08
2013-11-1,65.7,61.5,53.8,63.3,59.4,51.5,97,93,88,29.74,29.44,14,3,23,0.12
2013-11-2,65.7,55.1,47.1,54.3,48.8,43.5,93,80,64,29.65,29.50,8,0,8,0.00
2013-11-3,51.2,44.7,32.7,43.4,32.8,17.5,78,63,51,30.30,29.65,5,1,7,0.00
2013-11-4,45.9,34.6,27.7,26.2,18.0,13.0,55,51,44,30.56,30.30,6,1,6,0.00
2013-11-5,52.9,39.7,30.0,37.1,27.0,15.4,69,60,54,30.59,30.42,7,0,9,0.00
2013-11-6,59.7,48.3,36.5,47.1,39.5,28.7,81,72,62,30.42,30.00,7,1,11,0.00
2013-11-7,63.1,53.3,37.0,59.4,51.0,36.5,98,92,82,30.00,29.65,8,2,13,0.29
2013-11-8,39.9,37.3,30.9,39.4,35.6,23.3,98,94,68,30.03,29.77,5,1,6,0.00
2013-11-9,46.6,36.5,25.3,34.3,27.6,19.4,81,70,59,30.15,29.91,8,1,9,0.00
2013-11-10,58.6,46.1,38.1,43.2,38.7,34.0,91,76,53,29.91,29.65,8,2,10,0.04
2013-11-11,51.3,45.2,36.1,38.9,33.7,28.3,84,65,55,30.06,29.85,8,2,13,0.00
2013-11-12,50.2,35.7,26.6,36.2,27.2,15.3,88,72,55,30.12,29.83,7,2,7,0.08
2013-11-13,37.0,28.2,23.2,21.1,15.2,10.2,65,58,50,30.24,30.12,7,2,10,0.00
2013-11-14,49.5,35.9,23.5,30.6,21.1,10.9,64,55,47,30.15,30.00,10,2,10,0.00
2013-11-15,56.3,40.0,29.7,36.6,25.7,16.4,65,57,46,30.15,30.06,8,1,9,0.00
2013-11-16,59.5,43.7,32.9,43.5,32.7,22.8,77,65,51,30.21,30.12,3,0,6,0.00
2013-11-17,60.1,51.2,36.0,57.4,46.7,27.1,97,85,70,30.21,29.77,3,0,6,0.08
2013-11-18,61.0,56.3,47.3,60.4,53.1,38.2,98,89,65,29.77,29.50,10,2,14,0.46
2013-11-19,47.1,40.5,31.3,37.8,25.6,16.1,70,55,48,30.21,29.62,10,4,13,0.00
2013-11-20,31.3,31.3,31.3,16.1,16.1,16.1,53,53,53,30.21,30.21,5,4,6,0.00
2013-11-21,47.5,36.0,19.0,32.6,23.4,7.4,66,60,55,30.53,30.21,5,0,9,0.00
2013-11-22,51.3,45.5,39.6,48.7,40.3,29.1,93,83,66,30.30,29.77,5,0,6,0.08
2013-11-23,47.9,40.3,29.1,45.9,29.4,17.7,93,66,49,29.88,29.77,10,3,12,0.00
2013-11-24,29.5,23.8,20.8,18.1,6.4,3.0,62,47,42,30.18,29.80,12,5,24,0.00
2013-11-25,33.8,25.0,17.1,16.9,8.1,0.4,53,48,46,30.33,30.18,8,2,15,0.00
2013-11-26,32.5,32.5,32.5,16.8,16.8,16.8,52,52,52,30.21,30.21,3,3,12,0.00
2013-11-27,60.8,48.3,34.9,60.2,47.8,34.4,98,98,98,29.50,29.18,17,3,23,1.07
2013-11-28,35.1,29.4,22.1,34.6,26.9,17.4,98,90,80,30.39,29.50,12,3,13,0.00
2013-11-29,36.3,27.4,22.3,26.9,20.4,13.6,83,75,66,30.62,30.39,6,0,7,0.00
2013-11-30,33.6,24.5,14.2,22.9,15.5,6.8,74,69,60,30.68,30.33,5,0,8,0.00
2013-12-1,43.3,37.1,30.7,40.6,32.8,22.9,90,84,73,30.33,29.91,2,0,3,0.04
2013-12-2,43.2,36.3,30.2,40.2,33.5,27.0,92,89,87,29.91,29.83,2,0,3,0.00
2013-12-3,47.7,35.5,28.6,43.4,32.0,24.4,93,87,82,29.91,29.80,2,0,5,0.00
2013-12-4,48.6,35.0,26.4,41.7,30.3,23.1,89,83,76,30.09,29.91,3,0,7,0.00
2013-12-5,57.0,49.4,35.0,55.0,47.0,30.6,95,91,83,30.09,29.88,3,0,5,0.00
2013-12-6,54.7,46.6,37.2,53.8,45.9,36.7,98,97,95,30.03,29.83,5,1,6,0.70
2013-12-7,38.5,33.6,27.5,38.0,33.1,27.0,98,98,98,30.39,30.00,7,1,9,0.20
2013-12-8,32.9,28.4,20.7,32.4,27.3,19.7,98,96,83,30.50,30.33,3,0,5,0.00
2013-12-9,38.1,32.7,27.5,37.6,31.5,24.7,98,95,86,30.36,29.85,5,1,7,0.16
2013-12-10,34.2,30.7,24.4,33.7,30.2,24.0,98,98,98,29.97,29.71,2,0,6,0.00
2013-12-11,31.3,24.5,19.6,30.8,23.9,18.6,98,98,96,30.21,29.97,6,0,10,0.00
2013-12-12,24.0,17.5,9.5,21.5,15.4,6.9,97,92,87,30.24,30.03,6,1,10,0.00
2013-12-13,31.5,22.5,11.3,24.8,17.8,8.7,89,82,73,30.27,29.97,12,2,13,0.00
2013-12-14,25.3,20.4,16.7,22.6,15.6,12.4,89,81,74,30.44,29.88,5,1,10,0.00
2013-12-15,32.5,30.2,23.7,32.0,29.4,22.6,98,97,89,29.88,29.32,6,2,8,0.04
2013-12-16,27.3,21.2,10.0,26.3,20.1,8.2,98,95,92,30.15,29.68,7,1,9,0.00
2013-12-17,22.3,15.4,6.3,20.6,13.6,4.4,94,92,89,30.15,29.83,5,1,7,0.00
2013-12-18,31.8,22.9,16.7,31.1,21.5,14.8,98,94,92,30.03,29.80,7,1,10,0.00
2013-12-19,37.6,30.4,17.6,37.1,29.5,15.7,98,96,92,30.06,29.91,10,2,13,0.00
2013-12-20,44.4,35.6,29.8,43.9,35.1,29.3,98,98,98,30.03,29.88,7,1,10,0.04
2013-12-21,53.2,43.2,36.9,52.7,42.7,36.3,98,98,98,29.94,29.83,7,1,7,0.08
2013-12-22,59.2,56.4,46.6,58.3,55.8,45.9,98,98,96,29.91,29.77,10,2,15,0.00
2013-12-23,56.2,49.6,37.2,55.3,49.0,36.7,98,98,97,30.03,29.80,5,1,8,0.65
2013-12-24,37.2,33.0,26.1,36.7,30.3,18.3,98,90,72,30.18,29.97,6,2,9,0.00
2013-12-25,26.1,21.4,16.2,18.2,10.8,6.1,72,63,58,30.44,30.18,6,1,6,0.00
2013-12-26,35.8,28.0,22.1,29.0,20.1,11.8,76,72,64,30.39,30.03,6,0,7,0.00
2013-12-27,37.6,25.9,17.4,27.5,18.3,11.7,81,73,63,30.24,30.15,7,1,9,0.00
2013-12-28,47.5,31.1,20.8,33.7,22.1,14.2,82,70,55,30.18,29.97,12,1,12,0.00
2013-12-29,43.2,36.6,28.6,42.6,32.8,20.5,98,86,71,29.97,29.29,6,1,7,1.20
2013-12-30,39.2,30.9,17.4,38.7,30.2,15.2,98,97,91,30.09,29.53,6,2,10,0.00
2013-12-31,27.0,19.1,12.6,20.5,14.6,9.2,91,83,74,30.15,29.97,8,1,9,0.00
2014-1-1,30.5,23.0,12.9,19.1,15.2,7.6,81,72,62,30.30,30.15,7,1,10,0.00
2014-1-2,26.6,21.3,10.9,17.7,15.1,6.0,80,77,68,30.21,29.62,7,3,7,0.00